createdAt,value
2018-12-08T00:00:11.970Z,70.16
2018-12-08T00:05:14.517Z,70.80
2018-12-08T00:10:17.143Z,70.62
2018-12-08T00:15:20.474Z,70.67
2018-12-08T00:20:23.938Z,70.78
2018-12-08T00:25:26.571Z,71.88
2018-12-08T00:36:09.074Z,80.81
2018-12-08T00:41:11.697Z,82.32
2018-12-08T00:46:14.294Z,80.57
2018-12-08T00:51:16.837Z,80.62
2018-12-08T00:56:19.575Z,80.92
2018-12-08T01:01:22.159Z,81.62
2018-12-08T01:06:25.031Z,80.58
2018-12-08T01:11:27.650Z,81.53
2018-12-08T01:16:30.191Z,79.57
2018-12-08T01:21:32.844Z,78.33
2018-12-08T01:26:36.246Z,77.58
2018-12-08T01:31:38.865Z,75.63
2018-12-08T01:36:41.456Z,73.48
2018-12-08T01:41:44.166Z,73.91
2018-12-08T01:46:46.744Z,74.38
2018-12-08T01:51:49.640Z,73.50
2018-12-08T01:56:52.180Z,74.37
2018-12-08T02:01:54.732Z,74.30
2018-12-08T02:06:57.907Z,73.69
2018-12-08T02:12:00.497Z,73.76
2018-12-08T02:17:03.021Z,73.50
2018-12-08T02:22:05.573Z,73.45
2018-12-08T02:27:08.144Z,71.88
2018-12-08T02:32:10.786Z,72.74
2018-12-08T02:37:13.351Z,71.99
2018-12-08T02:42:15.920Z,72.48
2018-12-08T02:47:18.535Z,73.16
2018-12-08T02:52:21.090Z,72.23
2018-12-08T02:57:23.692Z,72.40
2018-12-08T03:02:26.457Z,72.61
2018-12-08T03:07:29.072Z,72.28
2018-12-08T03:12:31.748Z,72.27
2018-12-08T03:17:34.289Z,72.04
2018-12-08T03:22:36.856Z,72.43
2018-12-08T03:27:39.396Z,72.12
2018-12-08T03:32:42.011Z,72.79
2018-12-08T03:37:44.708Z,72.31
2018-12-08T03:42:47.398Z,71.41
2018-12-08T03:47:49.959Z,71.26
2018-12-08T03:52:52.592Z,72.29
2018-12-08T03:57:55.211Z,71.32
2018-12-08T04:02:57.897Z,71.00
2018-12-08T04:08:00.446Z,71.65
2018-12-08T04:13:03.113Z,71.36
2018-12-08T04:18:05.769Z,72.04
2018-12-08T04:23:08.344Z,71.56
2018-12-08T04:28:10.959Z,70.41
2018-12-08T04:33:13.522Z,70.41
2018-12-08T04:38:16.114Z,71.54
2018-12-08T04:43:18.713Z,70.37
2018-12-08T04:48:21.388Z,70.52
2018-12-08T04:53:23.980Z,69.25
2018-12-08T04:58:26.625Z,67.93
2018-12-08T05:03:29.277Z,68.92
2018-12-08T05:08:31.921Z,68.68
2018-12-08T05:13:34.846Z,68.78
2018-12-08T05:18:37.427Z,68.35
2018-12-08T05:23:40.127Z,68.03
2018-12-08T05:28:42.833Z,68.51
2018-12-08T05:33:45.382Z,68.29
2018-12-08T05:38:47.956Z,68.24
2018-12-08T05:43:50.492Z,66.69
2018-12-08T05:48:53.087Z,66.88
2018-12-08T05:53:55.693Z,66.07
2018-12-08T05:58:58.295Z,65.79
2018-12-08T06:04:01.080Z,65.22
2018-12-08T06:09:04.378Z,65.24
2018-12-08T06:14:06.944Z,65.81
2018-12-08T06:19:09.865Z,65.70
2018-12-08T06:24:12.894Z,65.01
2018-12-08T06:29:15.595Z,64.72
2018-12-08T06:34:18.298Z,64.48
2018-12-08T06:39:20.905Z,64.77
2018-12-08T06:44:23.480Z,63.90
2018-12-08T06:49:26.152Z,64.14
2018-12-08T06:54:28.730Z,63.80
2018-12-08T06:59:31.306Z,64.66
2018-12-08T07:04:33.892Z,64.35
2018-12-08T07:09:36.812Z,66.19
2018-12-08T07:14:39.678Z,65.97
2018-12-08T07:19:42.258Z,66.63
2018-12-08T07:24:44.992Z,66.75
2018-12-08T07:29:47.566Z,66.45
2018-12-08T07:34:50.243Z,66.42
2018-12-08T07:39:52.985Z,66.58
2018-12-08T07:44:55.596Z,66.19
2018-12-08T07:49:58.119Z,65.98
2018-12-08T07:55:01.649Z,66.15
2018-12-08T08:00:07.770Z,65.92
2018-12-08T08:05:10.397Z,65.60
2018-12-08T08:10:12.944Z,65.54
2018-12-08T08:15:15.548Z,65.12
2018-12-08T08:20:18.465Z,64.35
2018-12-08T08:25:21.070Z,64.82
2018-12-08T08:30:23.654Z,64.45
2018-12-08T08:35:26.477Z,64.03
2018-12-08T08:40:29.601Z,63.68
2018-12-08T08:45:32.706Z,63.48
2018-12-08T08:50:35.291Z,63.51
2018-12-08T08:55:37.917Z,63.01
2018-12-08T09:00:40.708Z,62.80
2018-12-08T09:05:43.256Z,62.25
2018-12-08T09:10:46.510Z,62.20
2018-12-08T09:15:49.976Z,61.84
2018-12-08T09:20:52.664Z,61.18
2018-12-08T09:25:55.294Z,61.46
2018-12-08T09:30:58.196Z,60.59
2018-12-08T09:36:00.724Z,60.80
2018-12-08T09:41:03.268Z,61.18
2018-12-08T09:46:05.901Z,60.89
2018-12-08T09:51:08.670Z,61.04
2018-12-08T09:56:11.208Z,60.18
2018-12-08T10:01:13.727Z,60.07
2018-12-08T10:06:16.503Z,60.86
2018-12-08T10:11:19.136Z,60.14
2018-12-08T10:16:22.545Z,60.88
2018-12-08T10:21:25.222Z,60.13
2018-12-08T10:26:27.900Z,60.33
2018-12-08T10:31:30.468Z,59.49
2018-12-08T10:36:33.068Z,59.06
2018-12-08T10:41:35.760Z,59.10
2018-12-08T10:46:38.355Z,58.80
2018-12-08T10:51:40.892Z,59.14
2018-12-08T10:56:43.517Z,59.52
2018-12-08T11:01:51.609Z,59.25
2018-12-08T11:06:54.189Z,59.80
2018-12-08T11:11:56.758Z,59.57
2018-12-08T11:16:59.342Z,59.70
2018-12-08T11:22:01.943Z,59.63
2018-12-08T11:27:04.590Z,59.40
2018-12-08T11:32:07.189Z,58.91
2018-12-08T11:37:09.729Z,59.10
2018-12-08T11:42:12.311Z,58.99
2018-12-08T11:47:14.865Z,59.23
2018-12-08T11:52:17.697Z,59.88
2018-12-08T11:57:20.233Z,59.09
2018-12-08T12:02:22.893Z,58.99
2018-12-08T12:07:26.132Z,58.85
2018-12-08T12:12:28.705Z,59.59
2018-12-08T12:17:31.320Z,59.25
2018-12-08T12:22:33.926Z,60.25
2018-12-08T12:27:36.491Z,59.80
2018-12-08T12:32:39.046Z,59.77
2018-12-08T12:37:41.740Z,59.69
2018-12-08T12:42:44.371Z,59.97
2018-12-08T12:47:46.929Z,60.38
2018-12-08T12:52:49.482Z,60.00
2018-12-08T12:57:52.032Z,59.98
2018-12-08T13:02:55.489Z,59.89
2018-12-08T13:07:58.017Z,59.66
2018-12-08T13:13:01.513Z,59.73
2018-12-08T13:18:04.197Z,59.82
2018-12-08T13:23:06.777Z,59.69
2018-12-08T13:28:09.473Z,60.30
2018-12-08T13:33:12.016Z,60.67
2018-12-08T13:38:15.222Z,60.47
2018-12-08T13:43:17.860Z,61.05
2018-12-08T13:48:20.647Z,61.48
2018-12-08T13:53:23.294Z,61.31
2018-12-08T13:58:25.905Z,61.88
2018-12-08T14:03:28.616Z,61.89
2018-12-08T14:08:31.160Z,61.92
2018-12-08T14:13:33.890Z,61.63
2018-12-08T14:18:37.174Z,61.60
2018-12-08T14:23:39.745Z,61.58
2018-12-08T14:28:42.522Z,62.18
2018-12-08T14:33:45.219Z,61.69
2018-12-08T14:38:48.510Z,62.55
2018-12-08T14:43:51.059Z,63.12
2018-12-08T14:48:53.693Z,63.34
2018-12-08T14:53:58.813Z,64.57
2018-12-08T14:59:01.649Z,64.49
2018-12-08T15:04:04.325Z,65.33
2018-12-08T15:09:07.112Z,70.50
2018-12-08T15:14:10.285Z,74.76
2018-12-08T15:19:12.824Z,75.08
2018-12-08T15:24:15.389Z,74.07
2018-12-08T15:29:17.961Z,76.06
2018-12-08T15:34:20.655Z,76.06
2018-12-08T15:39:23.276Z,76.74
2018-12-08T15:44:25.952Z,76.90
2018-12-08T15:49:28.560Z,76.26
2018-12-08T15:54:31.102Z,76.46
2018-12-08T15:59:33.715Z,76.50
2018-12-08T16:04:36.852Z,76.72
2018-12-08T16:09:40.157Z,75.80
2018-12-08T16:14:42.702Z,74.27
2018-12-08T16:19:46.382Z,74.56
2018-12-08T16:24:49.780Z,73.72
2018-12-08T16:29:52.601Z,73.34
2018-12-08T16:34:55.185Z,72.60
2018-12-08T16:39:57.724Z,72.85
2018-12-08T16:45:01.885Z,72.44
2018-12-08T16:50:05.704Z,71.99
2018-12-08T16:55:08.405Z,71.81
2018-12-08T17:00:11.155Z,70.61
2018-12-08T17:05:13.832Z,70.52
2018-12-08T17:10:16.541Z,71.06
2018-12-08T17:15:19.117Z,71.38
2018-12-08T17:20:21.771Z,71.25
2018-12-08T17:25:24.394Z,70.80
2018-12-08T17:30:26.927Z,70.70
2018-12-08T17:35:29.590Z,70.60
2018-12-08T17:40:32.148Z,70.68
2018-12-08T17:45:34.967Z,69.81
2018-12-08T17:50:37.592Z,70.32
2018-12-08T17:55:40.708Z,70.04
2018-12-08T18:00:43.308Z,69.88
2018-12-08T18:05:46.039Z,69.94
2018-12-08T18:10:48.681Z,70.29
2018-12-08T18:15:51.351Z,71.08
2018-12-08T18:20:54.194Z,70.35
2018-12-08T18:25:56.979Z,70.38
2018-12-08T18:30:59.725Z,70.40
2018-12-08T18:36:02.457Z,70.04
2018-12-08T18:41:05.163Z,70.16
2018-12-08T18:46:07.790Z,70.26
2018-12-08T18:51:10.642Z,70.66
2018-12-08T18:56:13.368Z,69.64
2018-12-08T19:01:15.961Z,70.23
2018-12-08T19:06:18.508Z,70.26
2018-12-08T19:11:22.276Z,70.14
2018-12-08T19:16:24.852Z,70.48
2018-12-08T19:21:27.383Z,70.55
2018-12-08T19:26:30.006Z,69.82
2018-12-08T19:31:32.644Z,69.69
2018-12-08T19:36:35.217Z,69.33
2018-12-08T19:41:37.900Z,68.46
2018-12-08T19:46:40.634Z,68.97
2018-12-08T19:51:43.240Z,68.99
2018-12-08T19:56:45.834Z,69.10
2018-12-08T20:01:48.684Z,69.18
2018-12-08T20:06:51.660Z,69.09
2018-12-08T20:11:54.205Z,69.43
2018-12-08T20:16:56.739Z,69.36
2018-12-08T20:21:59.359Z,68.76
2018-12-08T20:27:02.022Z,68.40
2018-12-08T20:32:04.572Z,68.74
2018-12-08T20:37:07.769Z,68.38
2018-12-08T20:42:10.396Z,67.43
2018-12-08T20:47:12.965Z,66.73
2018-12-08T20:52:15.613Z,67.62
2018-12-08T20:57:18.257Z,67.03
2018-12-08T21:02:20.827Z,66.27
2018-12-08T21:07:23.438Z,66.44
2018-12-08T21:12:25.980Z,67.21
2018-12-08T21:17:28.552Z,67.65
2018-12-08T21:22:31.109Z,67.68
2018-12-08T21:27:33.898Z,67.51
2018-12-08T21:32:36.444Z,67.58
2018-12-08T21:37:39.004Z,67.75
2018-12-08T21:42:41.585Z,68.44
2018-12-08T21:47:44.485Z,67.50
2018-12-08T21:52:47.088Z,67.87
2018-12-08T21:57:50.503Z,67.56
2018-12-08T22:02:53.113Z,67.56
2018-12-08T22:07:56.480Z,67.33
2018-12-08T22:12:59.433Z,67.52
2018-12-08T22:18:02.925Z,67.07
2018-12-08T22:23:05.645Z,67.21
2018-12-08T22:28:08.786Z,67.33
2018-12-08T22:33:11.428Z,66.60
2018-12-08T22:38:13.998Z,66.59
2018-12-08T22:43:16.569Z,66.98
2018-12-08T22:48:19.257Z,66.76
2018-12-08T22:53:21.804Z,67.31
2018-12-08T22:58:24.494Z,67.78
2018-12-08T23:03:27.128Z,67.24
2018-12-08T23:08:29.809Z,67.55
2018-12-08T23:13:33.008Z,67.58
2018-12-08T23:18:35.657Z,67.71
2018-12-08T23:23:38.798Z,68.30
2018-12-08T23:28:41.956Z,67.69
2018-12-08T23:33:44.590Z,67.67
2018-12-08T23:38:47.208Z,67.80
2018-12-08T23:43:49.809Z,67.32
2018-12-08T23:48:52.352Z,68.04
2018-12-08T23:53:54.889Z,67.94
2018-12-08T23:58:57.469Z,68.75
